Latest Observation

20 Stations

Daily Data | America/Los_Angeles
as of 4/21/24 8:21 AM PDT
Station Date Daily ETo (in) 7 Day ETo (in) Hrs 70-85F (hrs) Hrs > 95F (hrs) Powdery Mildew Stress (pts) GDDs (DL) GDDs (Mx/Mn) Seas GDDs (DL) Seas GDDs (Smpl) Hrs <= 32F (hrs) Hrs <= 28F (hrs) Chilling <=45F (hrs) Chill Hrs 32-45F (hrs) Utah Chilling (Units) Chill Portions
Shandon ETo (SLO-1) 4/20/24 0.178 1.06 6.90 0.00 40 10.8 10.3 130 116 0.0 0.0 4.9 4.9 1.0 -
Creston Rd (SLO-2) 4/20/24 0.174 1.02 6.70 0.00 10 10.8 10.6 123 107 0.0 0.0 3.9 3.9 0.0 -
NE Paso Robles (SLO-3) 4/20/24 0.172 1.08 6.63 0.00 0 10.8 12.1 135 132 0.0 0.0 3.0 3.0 0.5 -
Cross Canyon Rd (SLO-4) 4/20/24 0.174 1.08 6.84 0.00 50 11.3 11.7 140 128 0.0 0.0 1.5 1.5 0.0 -
Willow Creek (SLO-5) 4/20/24 0.194 1.03 7.95 0.00 0 13.0 10.2 111 83 0.0 0.0 6.8 6.8 0.0 -
Shell Creek Rd (SLO-6) 4/20/24 0.190 1.12 8.50 0.00 40 11.8 9.0 133 85 0.0 0.0 6.1 6.1 2.5 -
South Shandon (SLO-7) 4/20/24 0.168 1.04 6.59 0.00 40 10.5 10.2 126 93 0.0 0.0 5.7 5.7 -7.0 -
South Creston (SLO-8) 4/20/24 0.173 1.07 6.83 0.00 40 10.5 10.1 132 98 0.0 0.0 5.2 5.2 2.0 -
Pozo Rd (SLO-9) 4/20/24 0.167 0.99 6.30 0.00 10 9.8 8.7 108 64 0.0 0.0 6.8 6.8 -6.5 -
Experimental Station (SLO-10) 4/20/24 0.172 1.03 6.29 0.00 10 10.5 11.6 128 116 0.0 0.0 2.0 2.0 0.5 -
Vineyard Drive (SLO-11) 4/20/24 0.181 1.04 7.08 0.00 0 11.2 8.8 107 79 0.0 0.0 6.7 6.7 0.5 -
Von Dollen Road (SLO-12) 4/20/24 0.163 1.03 6.30 0.00 0 10.3 11.6 128 122 0.0 0.0 1.2 1.2 1.0 -
Templeton Gap West (SLO-13) 4/20/24 0.176 1.01 7.37 0.00 0 11.2 9.6 116 82 0.0 0.0 4.3 4.3 1.5 -
Orcutt Road (SLO-14) 4/20/24 0.132 0.95 0.00 0.00 0 6.0 9.2 109 107 0.0 0.0 0.0 0.0 2.5 -
Tiffany Ranch Rd (SLO-15) 4/20/24 0.137 0.98 0.68 0.00 0 6.7 8.5 113 92 0.0 0.0 0.0 0.0 3.5 -
Chimney Rock Rd (SLO-16) 4/20/24 0.187 1.14 6.96 0.00 0 11.0 10.5 117 92 0.0 0.0 4.7 4.7 1.5 -
Nipomo Mesa (SLO-17) 4/20/24 0.136 0.95 1.38 0.00 0 7.0 10.3 121 107 0.0 0.0 0.0 0.0 3.0 -
Morro Creek (SLO-18) 4/20/24 0.131 0.88 0.00 0.00 0 4.1 3.2 88 84 0.0 0.0 0.0 0.0 4.5 -
Paso Robles Airport ETo 4/20/24 0.176 1.08 6.22 0.00 10 10.2 10.9 128 117 0.0 0.0 1.7 1.7 0.0 90
West Shandon (SLO-20) 4/20/24 0.176 1.07 6.85 0.00 30 11.0 10.9 139 119 0.0 0.0 4.9 4.9 -0.5 89
Max   0.194 1.14 8.50 0.00 - 13.0 12.1 - - 0.0 0.0 6.8 6.8 4.5 90
Avg   - - 5.62 0.00 - 9.9 9.9 - - 0.0 0.0 3.5 3.5 0.5 90
Min   0.131 0.88 0.00 0.00 - 4.1 3.2 - - 0.0 0.0 0.0 0.0 -7.0 89